Echo Bay, Nevada
Current Conditions -  °F | °C
As of 7:58 PM on Sunday 19 Oct 2014 (Local Time) from KLSV Reporting Station
Clear Clear  
Wind Chill: 24°   Ceiling: Unl
Heat Index: 24°   Visibility: 10mi
Dew Point:   Wind: 6mph
Humidity: 27%   Direction: 10°N
Pressure: 29.84"   Gusts: NA
Location:  36.5809°N, 114.605°W
Report Text: KLSV 200258Z AUTO 01005KT 10SM CLR 24/04 A2984 RMK AO2 SLP090 T02360036 52009 $
Loading
Personal Weather Stations






























Interactive Weather Map
Tropical Storm Tracking
New forecast layout! Learn more

10-Day Weather Forecast

Advertisements
Track Severe Weather on mobile